Valdez, AK

4:09 PM AKDT on October 01, 2014 (GMT -0800)
Valdez | Change Station
CLOSE
Current Station
Airport
Location: Valdez Airport,
Elevation: 121 ft
Nearby Weather Stations

Elev 121 ft 61.13 °N, 146.25 °W | Updated 13 minutes ago

Clear
Clear
52 °F
Feels Like 52 °F
N
5
Wind Variable Wind from WSW

Today
High -- | Low -- °F
--% Chance of Precip.
Yesterday
High -- | Low -- °F
Precip. -- in
7:51 AM 7:15 PM
First Quarter, 52% visible
Pressure 30.26 in
Visibility 10.0 miles
Clouds Clear
Dew Point 25 °F
Humidity 35%
Rainfall 0.00 in
Snow Depth 102 in , 4 in , 3 in
UV 1 out of 12
Pollen Not available.
Air Quality Not available.
Flu Activity Not available.
METAR PAVD 012356Z 24004KT 10SM CLR 11/M04 A3026 RMK AO1 2347Z WEA: NONE TWR WND 16006KT 10120 20080 401200040 57007

More Conditions Fewer Conditions

Pressure 30.26 in
Visibility 10.0 miles
Clouds Clear
Dew Point 25 °F
Humidity 35%
Rainfall 0.00 in
Snow Depth 102 in , 4 in , 3 in
UV 1 out of 12
Pollen Not available.
Air Quality Not available.
Flu Activity Not available.
METAR PAVD 012356Z 24004KT 10SM CLR 11/M04 A3026 RMK AO1 2347Z WEA: NONE TWR WND 16006KT 10120 20080 401200040 57007

More Conditions Fewer Conditions

10-Day Weather Forecast

Almanac

Astronomy

Oct. 01, 2014 Rise Set
Actual Time 7:51 AM AKDT 7:15 PM AKDT
Civil Twilight 7:08 AM AKDT 7:58 PM AKDT
Nautical Twilight 6:18 AM AKDT 8:48 PM AKDT
Astronomical Twilight 5:24 AM AKDT 9:42 PM AKDT
Moon 4:13 PM AKDT (10/1) 11:48 PM AKDT (10/1)
Length of Visible Light 12h 49m
Length of Day
11h 23m
Tomorrow will be 5m 38s shorter.
First Quarter, 52% of the Moon is Illuminated
Today
First Quarter
Oct 8
Full
Oct 15
Last Quarter
Oct 23
New
Oct 30
First Quarter

Today's Extremes

State Highs State Lows

Community

WunderPhotos

Upload Photos

1,758,094 photos uploaded!

WunderBlogs® & News

Nearby

Snow Depth

Station Depth Elevation
Atigun Pass 102 in 4800 ft
Gobblers Knob 4 in 2030 ft
Coldfoot 3 in 1040 ft
Turnagain Pass 6 in 1880 ft
Susitna Valley High 1 in 375 ft

Earthquake Activity

City Distance Mag. Time & Date
No recent earthquake activity has been reported nearby.
Minimum magnitude displayed is 2.5.

Coastal Water Temperatures

Place Temperature
No Stations Reporting

Nearby Weather Stations